Hartwood, Virginia
Current Conditions -  °F | °C
As of 6:55 PM on Monday 22 Dec 2014 (Local Time) from KRMN Reporting Station
Drizzle Drizzle  
Wind Chill: 27°   Ceiling: 600
Heat Index: 33°   Visibility: 3mi
Dew Point: 33°   Wind: 7mph
Humidity: 100%   Direction: 350°N
Pressure: 30.2"   Gusts: NA
Location:  38.4°N, 77.57°W
Report Text: KRMN 222355Z AUTO 35006KT 3SM DZ OVC006 01/01 A3020 RMK AO2 P0001 60008 T00080008 10015 20008
Loading
Personal Weather Stations






























Interactive Weather Map New forecast layout! Learn more

10-Day Weather Forecast

Advertisements
Track Severe Weather on mobile